createdAt,value
2023-05-04T00:00:11.156Z,4.75
2023-05-04T00:02:38.692Z,4.43
2023-05-04T00:05:07.355Z,4.43
2023-05-04T00:07:34.998Z,4.25
2023-05-04T00:10:02.752Z,4.38
2023-05-04T00:12:30.624Z,4.90
2023-05-04T00:14:58.098Z,4.88
2023-05-04T00:17:27.038Z,4.32
2023-05-04T00:19:54.576Z,5.05
2023-05-04T00:22:22.051Z,4.75
2023-05-04T00:24:49.528Z,5.57
2023-05-04T00:27:17.044Z,4.80
2023-05-04T00:29:44.530Z,4.63
2023-05-04T00:32:12.032Z,5.40
2023-05-04T00:34:40.971Z,6.72
2023-05-04T00:37:08.440Z,6.70
2023-05-04T00:39:36.038Z,6.18
2023-05-04T00:42:04.047Z,5.80
2023-05-04T00:44:31.573Z,5.90
2023-05-04T00:47:08.101Z,4.45
2023-05-04T00:49:35.937Z,4.40
2023-05-04T00:52:05.511Z,4.95
2023-05-04T00:54:33.268Z,4.15
2023-05-04T00:57:02.116Z,4.55
2023-05-04T00:59:29.653Z,4.30
2023-05-04T01:01:57.081Z,3.80
2023-05-04T01:04:24.588Z,3.95
2023-05-04T01:06:59.718Z,4.03
2023-05-04T01:09:32.675Z,4.75
2023-05-04T01:12:06.270Z,4.75
2023-05-04T01:14:35.165Z,4.10
2023-05-04T01:17:04.872Z,4.45
2023-05-04T01:19:32.560Z,3.58
2023-05-04T01:22:01.568Z,3.53
2023-05-04T01:24:29.357Z,4.40
2023-05-04T01:26:59.738Z,4.95
2023-05-04T01:29:33.266Z,4.07
2023-05-04T01:32:01.139Z,3.72
2023-05-04T01:34:28.982Z,4.18
2023-05-04T01:36:56.887Z,3.33
2023-05-04T01:39:25.769Z,3.95
2023-05-04T01:41:53.251Z,4.10
2023-05-04T01:44:20.730Z,3.63
2023-05-04T01:46:48.238Z,3.50
2023-05-04T01:49:15.727Z,4.00
2023-05-04T01:51:43.181Z,3.30
2023-05-04T01:54:10.642Z,4.25
2023-05-04T01:56:39.509Z,3.88
2023-05-04T01:59:07.238Z,4.00
2023-05-04T02:01:34.807Z,4.25
2023-05-04T02:04:02.431Z,4.35
2023-05-04T02:06:30.036Z,3.95
2023-05-04T02:08:57.554Z,4.40
2023-05-04T02:11:25.135Z,4.10
2023-05-04T02:13:53.929Z,3.63
2023-05-04T02:16:21.533Z,4.13
2023-05-04T02:18:49.072Z,3.42
2023-05-04T02:21:16.574Z,4.10
2023-05-04T02:23:44.105Z,4.20
2023-05-04T02:26:11.663Z,4.05
2023-05-04T02:28:39.105Z,4.18
2023-05-04T02:31:08.062Z,4.35
2023-05-04T02:33:35.538Z,4.00
2023-05-04T02:36:02.999Z,4.43
2023-05-04T02:38:30.444Z,4.30
2023-05-04T02:40:58.378Z,4.05
2023-05-04T02:43:25.903Z,3.22
2023-05-04T02:45:53.967Z,3.78
2023-05-04T02:48:22.804Z,3.60
2023-05-04T02:50:50.296Z,3.88
2023-05-04T02:53:17.771Z,3.80
2023-05-04T02:55:45.270Z,3.67
2023-05-04T02:58:12.790Z,3.58
2023-05-04T03:00:40.417Z,4.45
2023-05-04T03:03:08.101Z,3.97
2023-05-04T03:05:36.945Z,4.00
2023-05-04T03:08:04.613Z,4.28
2023-05-04T03:10:32.201Z,4.25
2023-05-04T03:13:03.942Z,3.78
2023-05-04T03:17:58.994Z,4.32
2023-05-04T03:20:26.687Z,4.68
2023-05-04T03:22:55.522Z,4.97
2023-05-04T03:25:23.069Z,4.10
2023-05-04T03:27:50.523Z,4.85
2023-05-04T03:30:18.240Z,4.15
2023-05-04T03:32:46.010Z,3.58
2023-05-04T03:35:14.228Z,3.97
2023-05-04T03:37:41.701Z,4.32
2023-05-04T03:40:11.812Z,4.07
2023-05-04T03:42:39.271Z,4.25
2023-05-04T03:45:07.996Z,4.10
2023-05-04T03:47:35.494Z,4.45
2023-05-04T03:50:03.299Z,4.90
2023-05-04T03:52:31.070Z,4.35
2023-05-04T03:54:58.980Z,4.82
2023-05-04T03:57:27.818Z,4.68
2023-05-04T03:59:57.679Z,5.10
2023-05-04T04:02:26.078Z,4.60
2023-05-04T04:04:54.787Z,4.90
2023-05-04T04:07:22.253Z,4.68
2023-05-04T04:09:49.896Z,4.28
2023-05-04T04:12:18.449Z,4.32
2023-05-04T04:14:48.338Z,4.00
2023-05-04T04:17:15.870Z,3.42
2023-05-04T04:19:43.395Z,3.80
2023-05-04T04:22:10.855Z,4.03
2023-05-04T04:24:38.390Z,4.60
2023-05-04T04:27:06.316Z,4.47
2023-05-04T04:29:35.582Z,5.13
2023-05-04T04:32:04.635Z,4.60
2023-05-04T04:34:32.098Z,5.18
2023-05-04T04:36:59.817Z,4.57
2023-05-04T04:39:27.580Z,4.55
2023-05-04T04:41:55.073Z,4.60
2023-05-04T04:44:22.866Z,3.90
2023-05-04T04:46:59.498Z,4.20
2023-05-04T04:49:28.816Z,3.55
2023-05-04T04:51:56.776Z,4.05
2023-05-04T04:54:24.271Z,5.22
2023-05-04T04:56:51.735Z,5.70
2023-05-04T04:59:20.550Z,6.35
2023-05-04T05:01:48.609Z,6.47
2023-05-04T05:04:16.140Z,5.70
2023-05-04T05:06:45.075Z,6.63
2023-05-04T05:09:12.645Z,6.15
2023-05-04T05:11:40.176Z,5.65
2023-05-04T05:14:07.697Z,5.97
2023-05-04T05:16:35.183Z,6.25
2023-05-04T05:19:03.503Z,7.10
2023-05-04T05:21:30.987Z,6.45
2023-05-04T05:23:59.731Z,5.65
2023-05-04T05:26:27.339Z,6.25
2023-05-04T05:28:54.810Z,6.00
2023-05-04T05:31:22.403Z,5.72
2023-05-04T05:33:49.907Z,6.25
2023-05-04T05:36:17.374Z,5.75
2023-05-04T05:38:53.926Z,6.55
2023-05-04T05:41:23.089Z,6.53
2023-05-04T05:43:50.959Z,5.72
2023-05-04T05:46:18.744Z,5.70
2023-05-04T05:48:46.334Z,6.60
2023-05-04T05:51:13.791Z,6.05
2023-05-04T05:53:42.718Z,6.88
2023-05-04T05:56:10.193Z,6.10
2023-05-04T05:58:39.057Z,7.30
2023-05-04T06:01:06.553Z,6.78
2023-05-04T06:03:34.103Z,5.50
2023-05-04T06:06:01.753Z,6.68
2023-05-04T06:08:29.265Z,6.43
2023-05-04T06:10:56.719Z,5.95
2023-05-04T06:13:24.190Z,7.47
2023-05-04T06:15:53.620Z,6.25
2023-05-04T06:18:21.496Z,6.45
2023-05-04T06:20:49.231Z,6.78
2023-05-04T06:23:16.779Z,5.72
2023-05-04T06:25:44.246Z,6.55
2023-05-04T06:28:11.675Z,6.45
2023-05-04T06:30:39.184Z,5.93
2023-05-04T06:33:08.113Z,6.60
2023-05-04T06:35:35.655Z,6.45
2023-05-04T06:38:03.285Z,5.30
2023-05-04T06:40:30.754Z,5.93
2023-05-04T06:42:58.319Z,6.25
2023-05-04T06:45:25.761Z,5.15
2023-05-04T06:47:53.587Z,5.05
2023-05-04T06:50:24.010Z,5.13
2023-05-04T06:52:51.994Z,6.45
2023-05-04T06:55:19.933Z,6.38
2023-05-04T06:57:47.389Z,6.07
2023-05-04T07:00:15.614Z,5.60
2023-05-04T07:02:43.153Z,5.60
2023-05-04T07:05:11.007Z,5.43
2023-05-04T07:07:39.860Z,5.30
2023-05-04T07:10:08.282Z,6.30
2023-05-04T07:12:35.914Z,5.25
2023-05-04T07:15:03.442Z,6.25
2023-05-04T07:17:33.039Z,5.72
2023-05-04T07:20:01.967Z,6.15
2023-05-04T07:22:29.770Z,5.20
2023-05-04T07:24:59.636Z,5.68
2023-05-04T07:27:27.156Z,5.53
2023-05-04T07:29:54.678Z,5.10
2023-05-04T07:32:22.429Z,5.25
2023-05-04T07:34:49.976Z,5.22
2023-05-04T07:37:17.527Z,5.30
2023-05-04T07:39:45.046Z,4.78
2023-05-04T07:42:13.893Z,4.88
2023-05-04T07:44:41.858Z,5.10
2023-05-04T07:47:09.523Z,5.18
2023-05-04T07:49:37.022Z,4.22
2023-05-04T07:52:05.637Z,4.03
2023-05-04T07:54:33.241Z,4.22
2023-05-04T07:57:03.283Z,3.35
2023-05-04T07:59:32.614Z,4.15
2023-05-04T08:02:10.232Z,4.20
2023-05-04T08:04:37.817Z,4.05
2023-05-04T08:07:05.340Z,3.45
2023-05-04T08:09:32.826Z,3.03
2023-05-04T08:12:00.310Z,2.78
2023-05-04T08:14:27.809Z,3.30
2023-05-04T08:16:56.814Z,3.10
2023-05-04T08:19:24.651Z,3.47
2023-05-04T08:21:53.076Z,3.28
2023-05-04T08:24:20.596Z,2.70
2023-05-04T08:26:59.693Z,2.70
2023-05-04T08:29:31.891Z,2.70
2023-05-04T08:32:00.797Z,2.75
2023-05-04T08:34:28.292Z,2.67
2023-05-04T08:36:55.814Z,2.70
2023-05-04T08:39:23.300Z,2.38
2023-05-04T08:41:50.776Z,2.65
2023-05-04T08:44:18.713Z,2.80
2023-05-04T08:46:52.343Z,3.10
2023-05-04T08:49:21.479Z,2.58
2023-05-04T08:51:50.093Z,2.60
2023-05-04T08:54:18.560Z,2.53
2023-05-04T08:56:47.074Z,2.80
2023-05-04T08:59:20.024Z,2.95
2023-05-04T09:01:48.476Z,2.58
2023-05-04T09:04:16.417Z,2.30
2023-05-04T09:06:47.314Z,2.75
2023-05-04T09:09:15.173Z,2.67
2023-05-04T09:11:43.189Z,3.03
2023-05-04T09:14:10.681Z,2.35
2023-05-04T09:16:38.829Z,3.15
2023-05-04T09:19:17.995Z,3.00
2023-05-04T09:21:47.151Z,2.45
2023-05-04T09:24:14.691Z,2.78
2023-05-04T09:26:42.514Z,3.10
2023-05-04T09:29:13.829Z,3.20
2023-05-04T09:31:45.664Z,2.65
2023-05-04T09:36:42.125Z,2.80
2023-05-04T09:39:12.031Z,3.00
2023-05-04T09:41:39.709Z,2.80
2023-05-04T09:44:07.538Z,3.00
2023-05-04T09:46:36.615Z,3.50
2023-05-04T09:49:04.255Z,3.33
2023-05-04T09:51:32.468Z,2.60
2023-05-04T09:54:02.471Z,3.22
2023-05-04T09:56:39.900Z,3.63
2023-05-04T09:59:07.463Z,3.78
2023-05-04T10:01:34.992Z,3.58
2023-05-04T10:04:02.972Z,2.55
2023-05-04T10:06:31.337Z,3.13
2023-05-04T10:09:00.120Z,3.03
2023-05-04T10:11:27.696Z,3.08
2023-05-04T10:13:57.368Z,3.05
2023-05-04T10:16:37.835Z,3.85
2023-05-04T10:19:16.240Z,2.80
2023-05-04T10:21:52.059Z,3.60
2023-05-04T10:24:41.005Z,3.05
2023-05-04T10:27:11.765Z,3.20
2023-05-04T10:29:41.116Z,3.37
2023-05-04T10:32:18.734Z,3.00
2023-05-04T10:34:46.441Z,2.97
2023-05-04T10:37:18.056Z,2.90
2023-05-04T10:42:19.509Z,3.10
2023-05-04T10:44:52.952Z,3.75
2023-05-04T10:47:28.934Z,3.28
2023-05-04T10:50:02.384Z,3.83
2023-05-04T10:52:29.820Z,3.35
2023-05-04T10:55:01.595Z,3.55
2023-05-04T10:57:30.550Z,3.03
2023-05-04T10:59:59.909Z,3.53
2023-05-04T11:02:30.959Z,2.80
2023-05-04T11:05:02.160Z,3.50
2023-05-04T11:07:37.627Z,3.25
2023-05-04T11:10:05.753Z,3.60
2023-05-04T11:12:33.624Z,3.00
2023-05-04T11:15:07.517Z,3.20
2023-05-04T11:17:35.319Z,2.67
2023-05-04T11:20:02.874Z,3.40
2023-05-04T11:22:30.357Z,3.40
2023-05-04T11:24:58.172Z,2.42
2023-05-04T11:27:27.540Z,2.55
2023-05-04T11:29:56.687Z,3.40
2023-05-04T11:32:35.042Z,3.88
2023-05-04T11:35:04.413Z,2.88
2023-05-04T11:37:32.365Z,3.15
2023-05-04T11:40:00.451Z,2.85
2023-05-04T11:42:27.915Z,3.38
2023-05-04T11:44:55.933Z,2.88
2023-05-04T11:47:26.446Z,3.15
2023-05-04T11:49:54.119Z,2.80
2023-05-04T11:52:23.736Z,3.47
2023-05-04T11:54:56.872Z,3.70
2023-05-04T11:57:24.477Z,3.17
2023-05-04T11:59:52.296Z,3.00
2023-05-04T12:02:19.928Z,2.95
2023-05-04T12:04:48.805Z,3.13
2023-05-04T12:07:16.255Z,3.25
2023-05-04T12:09:48.021Z,2.63
2023-05-04T12:12:16.366Z,2.85
2023-05-04T12:14:51.861Z,3.08
2023-05-04T12:17:20.379Z,2.60
2023-05-04T12:19:50.956Z,3.25
2023-05-04T12:22:18.820Z,2.80
2023-05-04T12:24:46.335Z,2.90
2023-05-04T12:27:14.036Z,2.60
2023-05-04T12:29:41.560Z,2.67
2023-05-04T12:32:09.453Z,2.50
2023-05-04T12:34:38.121Z,2.55
2023-05-04T12:37:06.924Z,2.85
2023-05-04T12:39:34.373Z,2.85
2023-05-04T12:42:01.947Z,2.92
2023-05-04T12:44:29.691Z,3.20
2023-05-04T12:46:57.335Z,2.45
2023-05-04T12:49:25.091Z,2.78
2023-05-04T12:51:52.847Z,2.75
2023-05-04T12:54:21.654Z,2.47
2023-05-04T12:56:49.118Z,2.92
2023-05-04T12:59:16.618Z,3.22
2023-05-04T13:01:44.123Z,2.47
2023-05-04T13:04:11.720Z,3.80
2023-05-04T13:06:39.319Z,2.88
2023-05-04T13:09:06.849Z,2.55
2023-05-04T13:11:35.698Z,2.72
2023-05-04T13:14:03.242Z,2.70
2023-05-04T13:16:30.970Z,2.95
2023-05-04T13:18:58.864Z,2.70
2023-05-04T13:21:26.412Z,2.55
2023-05-04T13:23:53.882Z,2.80
2023-05-04T13:26:21.358Z,2.47
2023-05-04T13:28:51.366Z,2.42
2023-05-04T13:31:19.205Z,3.17
2023-05-04T13:33:47.447Z,2.90
2023-05-04T13:36:15.054Z,2.72
2023-05-04T13:38:42.570Z,2.95
2023-05-04T13:41:09.993Z,2.20
2023-05-04T13:43:37.494Z,2.70
2023-05-04T13:46:06.860Z,2.95
2023-05-04T13:48:34.970Z,2.30
2023-05-04T13:51:04.533Z,2.50
2023-05-04T13:53:31.975Z,2.55
2023-05-04T13:55:59.586Z,2.83
2023-05-04T13:58:27.091Z,2.63
2023-05-04T14:00:56.209Z,2.63
2023-05-04T14:03:25.132Z,2.58
2023-05-04T14:05:52.777Z,2.50
2023-05-04T14:08:20.377Z,2.70
2023-05-04T14:10:47.868Z,2.58
2023-05-04T14:13:15.646Z,2.50
2023-05-04T14:15:43.111Z,2.50
2023-05-04T14:18:10.965Z,2.88
2023-05-04T14:20:40.055Z,2.47
2023-05-04T14:23:07.564Z,3.30
2023-05-04T14:25:35.073Z,2.38
2023-05-04T14:28:02.794Z,2.78
2023-05-04T14:30:31.698Z,2.20
2023-05-04T14:32:59.195Z,2.50
2023-05-04T14:35:26.733Z,2.63
2023-05-04T14:37:55.490Z,2.35
2023-05-04T14:40:23.068Z,2.10
2023-05-04T14:42:50.479Z,2.33
2023-05-04T14:45:18.128Z,2.30
2023-05-04T14:47:45.645Z,2.25
2023-05-04T14:50:13.546Z,1.98
2023-05-04T14:52:41.072Z,2.45
2023-05-04T14:55:10.746Z,2.42
2023-05-04T14:57:38.177Z,2.15
2023-05-04T15:00:08.146Z,2.67
2023-05-04T15:02:38.434Z,2.20
2023-05-04T15:05:06.824Z,2.58
2023-05-04T15:07:34.274Z,2.35
2023-05-04T15:10:04.500Z,2.28
2023-05-04T15:12:33.395Z,2.40
2023-05-04T15:15:01.329Z,2.15
2023-05-04T15:17:29.729Z,2.53
2023-05-04T15:19:57.207Z,2.22
2023-05-04T15:22:24.722Z,2.60
2023-05-04T15:24:53.695Z,2.35
2023-05-04T15:27:21.186Z,2.10
2023-05-04T15:29:49.970Z,2.50
2023-05-04T15:32:17.472Z,2.60
2023-05-04T15:34:50.787Z,2.75
2023-05-04T15:37:27.607Z,2.40
2023-05-04T15:39:55.193Z,2.50
2023-05-04T15:42:22.733Z,2.40
2023-05-04T15:44:51.520Z,2.35
2023-05-04T15:47:19.131Z,1.95
2023-05-04T15:49:46.927Z,2.38
2023-05-04T15:52:14.406Z,2.83
2023-05-04T15:54:41.936Z,2.53
2023-05-04T15:57:09.356Z,2.15
2023-05-04T15:59:36.835Z,2.20
2023-05-04T16:02:08.080Z,2.30
2023-05-04T16:04:35.831Z,2.20
2023-05-04T16:07:03.280Z,2.10
2023-05-04T16:09:31.354Z,1.98
2023-05-04T16:11:59.131Z,2.30
2023-05-04T16:14:26.658Z,1.88
2023-05-04T16:16:54.132Z,2.65
2023-05-04T16:19:23.050Z,2.28
2023-05-04T16:21:50.608Z,2.15
2023-05-04T16:24:18.139Z,2.55
2023-05-04T16:26:45.724Z,2.50
2023-05-04T16:29:13.504Z,2.28
2023-05-04T16:31:41.068Z,2.83
2023-05-04T16:34:08.583Z,2.30
2023-05-04T16:36:46.260Z,2.53
2023-05-04T16:39:14.565Z,2.17
2023-05-04T16:41:46.529Z,2.22
2023-05-04T16:44:13.964Z,2.55
2023-05-04T16:46:41.566Z,2.38
2023-05-04T16:49:10.483Z,2.65
2023-05-04T16:51:41.700Z,2.88
2023-05-04T16:54:09.528Z,2.33
2023-05-04T16:56:37.296Z,2.47
2023-05-04T16:59:05.116Z,2.30
2023-05-04T17:01:32.802Z,2.20
2023-05-04T17:04:00.453Z,1.98
2023-05-04T17:06:28.003Z,2.35
2023-05-04T17:08:56.787Z,2.08
2023-05-04T17:11:24.298Z,2.17
2023-05-04T17:13:52.048Z,2.50
2023-05-04T17:16:19.572Z,2.40
2023-05-04T17:18:47.015Z,2.90
2023-05-04T17:21:14.563Z,2.30
2023-05-04T17:23:41.985Z,2.50
2023-05-04T17:26:10.786Z,2.40
2023-05-04T17:28:38.287Z,2.53
2023-05-04T17:31:05.748Z,2.00
2023-05-04T17:33:33.221Z,2.30
2023-05-04T17:36:00.660Z,2.13
2023-05-04T17:38:28.235Z,2.15
2023-05-04T17:40:55.750Z,2.78
2023-05-04T17:43:24.589Z,2.30
2023-05-04T17:45:54.304Z,2.28
2023-05-04T17:48:23.929Z,2.20
2023-05-04T17:50:51.785Z,2.25
2023-05-04T17:53:19.332Z,2.40
2023-05-04T17:55:46.766Z,2.40
2023-05-04T17:58:14.218Z,2.60
2023-05-04T18:00:43.039Z,2.58
2023-05-04T18:03:10.655Z,2.30
2023-05-04T18:05:38.214Z,2.88
2023-05-04T18:08:06.306Z,2.47
2023-05-04T18:10:33.809Z,2.38
2023-05-04T18:13:01.376Z,1.85
2023-05-04T18:15:28.885Z,2.00
2023-05-04T18:17:57.971Z,2.60
2023-05-04T18:20:25.704Z,2.25
2023-05-04T18:22:53.192Z,2.20
2023-05-04T18:25:20.724Z,2.50
2023-05-04T18:27:48.179Z,2.47
2023-05-04T18:30:15.878Z,2.60
2023-05-04T18:32:43.416Z,2.60
2023-05-04T18:35:12.456Z,2.53
2023-05-04T18:37:39.985Z,3.03
2023-05-04T18:40:09.224Z,3.00
2023-05-04T18:42:36.903Z,2.95
2023-05-04T18:45:04.727Z,2.88
2023-05-04T18:47:32.674Z,3.03
2023-05-04T18:50:00.596Z,3.15
2023-05-04T18:52:29.728Z,3.05
2023-05-04T18:54:57.221Z,2.90
2023-05-04T18:57:24.737Z,2.83
2023-05-04T18:59:52.204Z,2.75
2023-05-04T19:02:19.643Z,2.47
2023-05-04T19:04:47.964Z,2.90
2023-05-04T19:07:17.128Z,4.20
2023-05-04T19:09:46.361Z,4.57
2023-05-04T19:12:14.242Z,4.63
2023-05-04T19:14:43.017Z,4.40
2023-05-04T19:17:10.884Z,4.18
2023-05-04T19:19:38.603Z,4.35
2023-05-04T19:22:06.985Z,4.00
2023-05-04T19:24:36.280Z,4.30
2023-05-04T19:27:05.392Z,4.07
2023-05-04T19:29:32.881Z,3.90
2023-05-04T19:32:05.637Z,2.97
2023-05-04T19:34:42.906Z,3.03
2023-05-04T19:37:10.506Z,3.10
2023-05-04T19:39:38.217Z,3.15
2023-05-04T19:42:07.116Z,3.13
2023-05-04T19:44:34.604Z,4.25
2023-05-04T19:47:02.083Z,4.10
2023-05-04T19:49:29.569Z,3.75
2023-05-04T19:51:57.068Z,3.67
2023-05-04T19:54:24.546Z,3.05
2023-05-04T19:56:52.935Z,3.15
2023-05-04T19:59:21.729Z,3.35
2023-05-04T20:01:49.370Z,3.25
2023-05-04T20:04:17.768Z,3.40
2023-05-04T20:06:45.273Z,3.38
2023-05-04T20:09:13.543Z,3.08
2023-05-04T20:11:41.016Z,2.60
2023-05-04T20:14:08.844Z,2.90
2023-05-04T20:20:33.810Z,3.80
2023-05-04T20:23:01.230Z,3.53
2023-05-04T20:25:29.169Z,4.22
2023-05-04T20:27:56.626Z,3.60
2023-05-04T20:30:28.072Z,3.65
2023-05-04T20:32:55.689Z,3.80
2023-05-04T20:35:23.296Z,3.90
2023-05-04T20:37:52.081Z,4.50
2023-05-04T20:40:19.723Z,4.22
2023-05-04T20:42:47.242Z,4.53
2023-05-04T20:45:14.722Z,4.10
2023-05-04T20:47:42.708Z,3.85
2023-05-04T20:50:12.056Z,3.78
2023-05-04T20:52:39.600Z,3.53
2023-05-04T20:55:09.250Z,4.22
2023-05-04T20:57:36.801Z,3.40
2023-05-04T21:00:06.605Z,3.80
2023-05-04T21:02:34.289Z,3.67
2023-05-04T21:05:01.882Z,3.92
2023-05-04T21:07:29.324Z,3.72
2023-05-04T21:09:57.577Z,3.58
2023-05-04T21:12:26.865Z,3.55
2023-05-04T21:14:54.428Z,4.00
2023-05-04T21:17:21.881Z,3.40
2023-05-04T21:19:49.286Z,3.60
2023-05-04T21:22:17.832Z,3.20
2023-05-04T21:24:47.021Z,3.30
2023-05-04T21:27:14.456Z,3.55
2023-05-04T21:29:43.232Z,3.38
2023-05-04T21:32:10.663Z,3.40
2023-05-04T21:34:38.100Z,3.15
2023-05-04T21:37:05.575Z,3.47
2023-05-04T21:39:32.998Z,3.50
2023-05-04T21:42:01.597Z,3.47
2023-05-04T21:44:29.064Z,3.42
2023-05-04T21:46:58.047Z,2.75
2023-05-04T21:49:25.517Z,3.65
2023-05-04T21:51:52.944Z,3.55
2023-05-04T21:54:22.022Z,3.10
2023-05-04T21:56:49.487Z,3.20
2023-05-04T21:59:17.020Z,3.42
2023-05-04T22:01:44.454Z,3.75
2023-05-04T22:04:13.284Z,3.60
2023-05-04T22:06:40.853Z,3.55
2023-05-04T22:09:09.001Z,3.58
2023-05-04T22:11:36.972Z,3.17
2023-05-04T22:14:04.575Z,3.10
2023-05-04T22:16:32.090Z,3.30
2023-05-04T22:18:59.786Z,3.47
2023-05-04T22:21:28.654Z,3.22
2023-05-04T22:23:56.172Z,3.28
2023-05-04T22:26:23.616Z,3.40
2023-05-04T22:28:51.316Z,3.58
2023-05-04T22:31:18.806Z,3.50
2023-05-04T22:33:46.264Z,3.42
2023-05-04T22:36:13.898Z,4.07
2023-05-04T22:38:42.741Z,4.07
2023-05-04T22:41:10.277Z,4.40
2023-05-04T22:43:37.760Z,3.90
2023-05-04T22:46:05.346Z,4.25
2023-05-04T22:48:33.253Z,4.10
2023-05-04T22:51:01.561Z,3.70
2023-05-04T22:53:28.992Z,3.72
2023-05-04T22:55:57.762Z,3.50
2023-05-04T22:58:25.223Z,4.32
2023-05-04T23:00:52.765Z,3.42
2023-05-04T23:03:20.310Z,3.38
2023-05-04T23:05:47.790Z,3.78
2023-05-04T23:08:15.943Z,4.00
2023-05-04T23:10:45.476Z,3.78
2023-05-04T23:13:14.573Z,3.90
2023-05-04T23:15:42.077Z,4.00
2023-05-04T23:18:09.653Z,3.85
2023-05-04T23:20:37.187Z,3.75
2023-05-04T23:23:04.752Z,4.18
2023-05-04T23:25:32.205Z,4.20
2023-05-04T23:27:59.625Z,4.50
2023-05-04T23:30:28.422Z,4.60
2023-05-04T23:32:56.167Z,4.10
2023-05-04T23:35:23.838Z,4.55
2023-05-04T23:37:51.727Z,4.38
2023-05-04T23:40:19.908Z,4.85
2023-05-04T23:42:49.690Z,4.57
2023-05-04T23:45:17.577Z,4.53
2023-05-04T23:47:46.408Z,4.05
2023-05-04T23:50:13.994Z,4.28
2023-05-04T23:52:41.486Z,5.05
2023-05-04T23:55:09.605Z,4.40
2023-05-04T23:57:37.073Z,4.38
